sensor_id;sensor_type;location;lat;lon;timestamp;P1;durP1;ratioP1;P2;durP2;ratioP2
21272;SDS011;36726;52.328;10.552;2022-12-18T00:01:16;25.45;;;12.93;;
21272;SDS011;36726;52.328;10.552;2022-12-18T00:03:46;24.27;;;12.45;;
21272;SDS011;36726;52.328;10.552;2022-12-18T00:06:14;24.75;;;12.43;;
21272;SDS011;36726;52.328;10.552;2022-12-18T00:08:42;30.02;;;12.93;;
21272;SDS011;36726;52.328;10.552;2022-12-18T00:11:19;29.85;;;13.63;;
21272;SDS011;36726;52.328;10.552;2022-12-18T00:13:47;26.33;;;13.23;;
21272;SDS011;36726;52.328;10.552;2022-12-18T00:16:16;29.20;;;13.10;;
21272;SDS011;36726;52.328;10.552;2022-12-18T00:18:48;29.85;;;13.00;;
21272;SDS011;36726;52.328;10.552;2022-12-18T00:21:19;28.55;;;13.90;;
21272;SDS011;36726;52.328;10.552;2022-12-18T00:23:49;30.30;;;13.57;;
21272;SDS011;36726;52.328;10.552;2022-12-18T00:26:17;27.60;;;13.50;;
21272;SDS011;36726;52.328;10.552;2022-12-18T00:28:44;28.27;;;12.90;;
21272;SDS011;36726;52.328;10.552;2022-12-18T00:31:13;29.23;;;13.40;;
21272;SDS011;36726;52.328;10.552;2022-12-18T00:33:42;27.80;;;13.38;;
21272;SDS011;36726;52.328;10.552;2022-12-18T00:38:43;23.85;;;12.57;;
21272;SDS011;36726;52.328;10.552;2022-12-18T00:41:11;29.30;;;12.50;;
21272;SDS011;36726;52.328;10.552;2022-12-18T00:43:40;31.95;;;13.30;;
21272;SDS011;36726;52.328;10.552;2022-12-18T00:46:07;28.95;;;12.95;;
21272;SDS011;36726;52.328;10.552;2022-12-18T00:48:34;27.52;;;12.50;;
21272;SDS011;36726;52.328;10.552;2022-12-18T00:51:01;29.20;;;12.98;;
21272;SDS011;36726;52.328;10.552;2022-12-18T00:53:28;26.45;;;12.13;;
21272;SDS011;36726;52.328;10.552;2022-12-18T00:55:55;26.40;;;12.20;;
21272;SDS011;36726;52.328;10.552;2022-12-18T00:58:21;23.30;;;11.95;;
21272;SDS011;36726;52.328;10.552;2022-12-18T01:00:48;24.05;;;11.95;;
21272;SDS011;36726;52.328;10.552;2022-12-18T01:03:14;25.02;;;12.15;;
21272;SDS011;36726;52.328;10.552;2022-12-18T01:05:42;27.98;;;12.73;;
21272;SDS011;36726;52.328;10.552;2022-12-18T01:08:10;24.67;;;12.30;;
21272;SDS011;36726;52.328;10.552;2022-12-18T01:10:39;22.42;;;11.20;;
21272;SDS011;36726;52.328;10.552;2022-12-18T01:13:07;23.65;;;10.77;;
21272;SDS011;36726;52.328;10.552;2022-12-18T01:15:34;24.38;;;11.20;;
21272;SDS011;36726;52.328;10.552;2022-12-18T01:18:01;23.52;;;11.25;;
21272;SDS011;36726;52.328;10.552;2022-12-18T01:20:27;25.75;;;11.32;;
21272;SDS011;36726;52.328;10.552;2022-12-18T01:22:54;24.05;;;10.75;;
21272;SDS011;36726;52.328;10.552;2022-12-18T01:25:21;19.35;;;10.60;;
21272;SDS011;36726;52.328;10.552;2022-12-18T01:27:49;20.83;;;10.95;;
21272;SDS011;36726;52.328;10.552;2022-12-18T01:30:16;22.85;;;10.52;;
21272;SDS011;36726;52.328;10.552;2022-12-18T01:32:44;27.75;;;11.27;;
21272;SDS011;36726;52.328;10.552;2022-12-18T01:35:10;24.73;;;11.18;;
21272;SDS011;36726;52.328;10.552;2022-12-18T01:37:37;22.02;;;11.52;;
21272;SDS011;36726;52.328;10.552;2022-12-18T01:40:04;26.35;;;11.18;;
21272;SDS011;36726;52.328;10.552;2022-12-18T01:42:31;23.88;;;11.85;;
21272;SDS011;36726;52.328;10.552;2022-12-18T01:45:22;21.95;;;10.60;;
21272;SDS011;36726;52.328;10.552;2022-12-18T01:47:58;24.38;;;10.38;;
21272;SDS011;36726;52.328;10.552;2022-12-18T01:50:35;21.15;;;10.00;;
21272;SDS011;36726;52.328;10.552;2022-12-18T01:55:40;23.50;;;11.23;;
21272;SDS011;36726;52.328;10.552;2022-12-18T01:58:11;22.67;;;11.35;;
21272;SDS011;36726;52.328;10.552;2022-12-18T02:00:38;24.13;;;10.30;;
21272;SDS011;36726;52.328;10.552;2022-12-18T02:03:04;24.23;;;12.25;;
21272;SDS011;36726;52.328;10.552;2022-12-18T02:05:44;26.23;;;12.18;;
21272;SDS011;36726;52.328;10.552;2022-12-18T02:08:19;30.33;;;12.10;;
21272;SDS011;36726;52.328;10.552;2022-12-18T02:16:00;26.02;;;10.55;;
21272;SDS011;36726;52.328;10.552;2022-12-18T02:18:38;21.15;;;10.40;;
21272;SDS011;36726;52.328;10.552;2022-12-18T02:23:52;22.75;;;9.98;;
21272;SDS011;36726;52.328;10.552;2022-12-18T02:26:34;28.67;;;11.50;;
21272;SDS011;36726;52.328;10.552;2022-12-18T02:31:51;22.33;;;10.55;;
21272;SDS011;36726;52.328;10.552;2022-12-18T02:34:21;27.13;;;10.00;;
21272;SDS011;36726;52.328;10.552;2022-12-18T02:36:52;24.83;;;9.88;;
21272;SDS011;36726;52.328;10.552;2022-12-18T02:39:21;20.70;;;10.30;;
21272;SDS011;36726;52.328;10.552;2022-12-18T02:41:57;23.10;;;10.55;;
21272;SDS011;36726;52.328;10.552;2022-12-18T02:44:25;22.67;;;10.00;;
21272;SDS011;36726;52.328;10.552;2022-12-18T02:46:53;23.23;;;10.65;;
21272;SDS011;36726;52.328;10.552;2022-12-18T02:57:26;20.13;;;9.65;;
21272;SDS011;36726;52.328;10.552;2022-12-18T03:05:38;18.00;;;9.25;;
21272;SDS011;36726;52.328;10.552;2022-12-18T03:08:12;21.13;;;9.80;;
21272;SDS011;36726;52.328;10.552;2022-12-18T03:13:43;20.10;;;10.13;;
21272;SDS011;36726;52.328;10.552;2022-12-18T03:16:15;21.85;;;10.07;;
21272;SDS011;36726;52.328;10.552;2022-12-18T03:18:55;27.10;;;10.57;;
21272;SDS011;36726;52.328;10.552;2022-12-18T03:21:35;21.27;;;10.18;;
21272;SDS011;36726;52.328;10.552;2022-12-18T03:24:07;20.65;;;10.10;;
21272;SDS011;36726;52.328;10.552;2022-12-18T03:26:36;25.15;;;10.98;;
21272;SDS011;36726;52.328;10.552;2022-12-18T03:29:12;17.95;;;9.93;;
21272;SDS011;36726;52.328;10.552;2022-12-18T03:31:48;22.35;;;9.20;;
21272;SDS011;36726;52.328;10.552;2022-12-18T03:34:19;18.95;;;9.18;;
21272;SDS011;36726;52.328;10.552;2022-12-18T03:36:52;20.95;;;9.68;;
21272;SDS011;36726;52.328;10.552;2022-12-18T03:39:21;21.35;;;9.63;;
21272;SDS011;36726;52.328;10.552;2022-12-18T03:47:32;19.63;;;9.63;;
21272;SDS011;36726;52.328;10.552;2022-12-18T03:52:42;22.20;;;9.77;;
21272;SDS011;36726;52.328;10.552;2022-12-18T03:55:14;20.08;;;9.35;;
21272;SDS011;36726;52.328;10.552;2022-12-18T03:57:44;23.27;;;10.07;;
21272;SDS011;36726;52.328;10.552;2022-12-18T04:00:13;20.80;;;9.70;;
21272;SDS011;36726;52.328;10.552;2022-12-18T04:03:03;17.20;;;8.68;;
21272;SDS011;36726;52.328;10.552;2022-12-18T04:05:38;18.05;;;9.02;;
21272;SDS011;36726;52.328;10.552;2022-12-18T04:08:09;20.27;;;8.88;;
21272;SDS011;36726;52.328;10.552;2022-12-18T04:10:41;17.27;;;8.70;;
21272;SDS011;36726;52.328;10.552;2022-12-18T04:13:08;17.55;;;8.60;;
21272;SDS011;36726;52.328;10.552;2022-12-18T04:15:35;23.65;;;9.45;;
21272;SDS011;36726;52.328;10.552;2022-12-18T04:18:07;20.15;;;9.23;;
21272;SDS011;36726;52.328;10.552;2022-12-18T04:20:40;20.25;;;8.68;;
21272;SDS011;36726;52.328;10.552;2022-12-18T04:23:07;20.80;;;8.68;;
21272;SDS011;36726;52.328;10.552;2022-12-18T04:25:33;20.42;;;9.38;;
21272;SDS011;36726;52.328;10.552;2022-12-18T04:28:10;17.40;;;8.40;;
21272;SDS011;36726;52.328;10.552;2022-12-18T04:30:37;21.95;;;8.68;;
21272;SDS011;36726;52.328;10.552;2022-12-18T04:33:08;18.65;;;9.07;;
21272;SDS011;36726;52.328;10.552;2022-12-18T04:35:41;17.38;;;9.00;;
21272;SDS011;36726;52.328;10.552;2022-12-18T04:38:09;16.75;;;8.63;;
21272;SDS011;36726;52.328;10.552;2022-12-18T04:40:39;24.05;;;9.75;;
21272;SDS011;36726;52.328;10.552;2022-12-18T04:43:14;20.98;;;9.75;;
21272;SDS011;36726;52.328;10.552;2022-12-18T04:45:41;19.88;;;9.48;;
21272;SDS011;36726;52.328;10.552;2022-12-18T04:48:08;19.42;;;9.18;;
21272;SDS011;36726;52.328;10.552;2022-12-18T04:50:35;17.77;;;9.73;;
21272;SDS011;36726;52.328;10.552;2022-12-18T04:53:01;20.80;;;9.45;;
21272;SDS011;36726;52.328;10.552;2022-12-18T04:55:28;18.48;;;9.18;;
21272;SDS011;36726;52.328;10.552;2022-12-18T04:57:55;17.48;;;8.75;;
21272;SDS011;36726;52.328;10.552;2022-12-18T05:00:21;22.52;;;9.40;;
21272;SDS011;36726;52.328;10.552;2022-12-18T05:02:48;16.90;;;7.43;;
21272;SDS011;36726;52.328;10.552;2022-12-18T05:05:15;15.77;;;8.52;;
21272;SDS011;36726;52.328;10.552;2022-12-18T05:07:41;16.40;;;7.75;;
21272;SDS011;36726;52.328;10.552;2022-12-18T05:10:08;18.23;;;8.23;;
21272;SDS011;36726;52.328;10.552;2022-12-18T05:12:35;17.48;;;8.77;;
21272;SDS011;36726;52.328;10.552;2022-12-18T05:15:22;22.38;;;8.55;;
21272;SDS011;36726;52.328;10.552;2022-12-18T05:17:50;19.73;;;8.77;;
21272;SDS011;36726;52.328;10.552;2022-12-18T05:20:16;15.82;;;8.45;;
21272;SDS011;36726;52.328;10.552;2022-12-18T05:22:44;19.15;;;9.13;;
21272;SDS011;36726;52.328;10.552;2022-12-18T05:25:11;18.30;;;8.65;;
21272;SDS011;36726;52.328;10.552;2022-12-18T05:27:37;21.98;;;8.15;;
21272;SDS011;36726;52.328;10.552;2022-12-18T05:30:04;16.63;;;7.97;;
21272;SDS011;36726;52.328;10.552;2022-12-18T05:32:31;19.83;;;8.57;;
21272;SDS011;36726;52.328;10.552;2022-12-18T05:34:57;18.30;;;8.60;;
21272;SDS011;36726;52.328;10.552;2022-12-18T05:37:24;17.88;;;8.40;;
21272;SDS011;36726;52.328;10.552;2022-12-18T05:39:50;18.98;;;8.32;;
21272;SDS011;36726;52.328;10.552;2022-12-18T05:42:17;17.10;;;8.07;;
21272;SDS011;36726;52.328;10.552;2022-12-18T05:44:44;15.75;;;8.25;;
21272;SDS011;36726;52.328;10.552;2022-12-18T05:47:10;18.42;;;8.38;;
21272;SDS011;36726;52.328;10.552;2022-12-18T05:49:37;11.73;;;7.18;;
21272;SDS011;36726;52.328;10.552;2022-12-18T05:52:04;17.35;;;7.97;;
21272;SDS011;36726;52.328;10.552;2022-12-18T05:54:30;18.55;;;8.27;;
21272;SDS011;36726;52.328;10.552;2022-12-18T05:56:57;23.17;;;7.70;;
21272;SDS011;36726;52.328;10.552;2022-12-18T05:59:24;14.68;;;7.53;;
21272;SDS011;36726;52.328;10.552;2022-12-18T06:01:51;18.52;;;8.57;;
21272;SDS011;36726;52.328;10.552;2022-12-18T06:04:18;18.42;;;8.18;;
21272;SDS011;36726;52.328;10.552;2022-12-18T06:06:44;15.75;;;8.15;;
21272;SDS011;36726;52.328;10.552;2022-12-18T06:09:12;16.63;;;7.50;;
21272;SDS011;36726;52.328;10.552;2022-12-18T06:11:38;17.33;;;8.00;;
21272;SDS011;36726;52.328;10.552;2022-12-18T06:14:05;16.38;;;7.18;;
21272;SDS011;36726;52.328;10.552;2022-12-18T06:16:32;16.52;;;8.18;;
21272;SDS011;36726;52.328;10.552;2022-12-18T06:18:59;18.88;;;8.20;;
21272;SDS011;36726;52.328;10.552;2022-12-18T06:21:27;21.00;;;9.05;;
21272;SDS011;36726;52.328;10.552;2022-12-18T06:23:54;14.02;;;8.02;;
21272;SDS011;36726;52.328;10.552;2022-12-18T06:26:21;16.23;;;8.07;;
21272;SDS011;36726;52.328;10.552;2022-12-18T06:28:53;18.27;;;7.88;;
21272;SDS011;36726;52.328;10.552;2022-12-18T06:31:20;18.15;;;7.80;;
21272;SDS011;36726;52.328;10.552;2022-12-18T06:33:46;15.63;;;7.03;;
21272;SDS011;36726;52.328;10.552;2022-12-18T06:36:13;19.58;;;8.15;;
21272;SDS011;36726;52.328;10.552;2022-12-18T06:38:41;17.23;;;8.75;;
21272;SDS011;36726;52.328;10.552;2022-12-18T06:41:09;18.77;;;9.05;;
21272;SDS011;36726;52.328;10.552;2022-12-18T06:43:43;18.27;;;8.50;;
21272;SDS011;36726;52.328;10.552;2022-12-18T06:46:10;17.02;;;8.43;;
21272;SDS011;36726;52.328;10.552;2022-12-18T06:48:38;20.25;;;8.68;;
21272;SDS011;36726;52.328;10.552;2022-12-18T06:51:04;18.60;;;7.90;;
21272;SDS011;36726;52.328;10.552;2022-12-18T06:53:31;19.13;;;8.48;;
21272;SDS011;36726;52.328;10.552;2022-12-18T06:56:02;19.00;;;8.05;;
21272;SDS011;36726;52.328;10.552;2022-12-18T06:58:35;20.90;;;7.97;;
21272;SDS011;36726;52.328;10.552;2022-12-18T07:01:03;14.90;;;7.28;;
21272;SDS011;36726;52.328;10.552;2022-12-18T07:03:31;14.40;;;8.10;;
21272;SDS011;36726;52.328;10.552;2022-12-18T07:05:57;23.88;;;8.30;;
21272;SDS011;36726;52.328;10.552;2022-12-18T07:08:24;16.02;;;8.30;;
21272;SDS011;36726;52.328;10.552;2022-12-18T07:10:51;19.90;;;8.30;;
21272;SDS011;36726;52.328;10.552;2022-12-18T07:13:21;22.58;;;8.32;;
21272;SDS011;36726;52.328;10.552;2022-12-18T07:15:48;23.98;;;8.25;;
21272;SDS011;36726;52.328;10.552;2022-12-18T07:18:15;19.70;;;8.40;;
21272;SDS011;36726;52.328;10.552;2022-12-18T07:20:41;18.50;;;8.32;;
21272;SDS011;36726;52.328;10.552;2022-12-18T07:23:08;22.50;;;8.02;;
21272;SDS011;36726;52.328;10.552;2022-12-18T07:25:35;17.73;;;7.85;;
21272;SDS011;36726;52.328;10.552;2022-12-18T07:28:03;23.40;;;8.30;;
21272;SDS011;36726;52.328;10.552;2022-12-18T07:30:30;19.02;;;8.40;;
21272;SDS011;36726;52.328;10.552;2022-12-18T07:32:56;16.20;;;8.93;;
21272;SDS011;36726;52.328;10.552;2022-12-18T07:35:23;16.95;;;8.20;;
21272;SDS011;36726;52.328;10.552;2022-12-18T07:37:50;15.70;;;9.05;;
21272;SDS011;36726;52.328;10.552;2022-12-18T07:40:17;18.13;;;9.55;;
21272;SDS011;36726;52.328;10.552;2022-12-18T07:42:44;23.70;;;10.02;;
21272;SDS011;36726;52.328;10.552;2022-12-18T07:45:10;21.50;;;8.77;;
21272;SDS011;36726;52.328;10.552;2022-12-18T07:47:38;19.27;;;8.02;;
21272;SDS011;36726;52.328;10.552;2022-12-18T07:50:04;18.15;;;9.52;;
21272;SDS011;36726;52.328;10.552;2022-12-18T07:52:31;20.45;;;9.10;;
21272;SDS011;36726;52.328;10.552;2022-12-18T07:54:59;17.85;;;9.05;;
21272;SDS011;36726;52.328;10.552;2022-12-18T07:57:25;21.38;;;9.20;;
21272;SDS011;36726;52.328;10.552;2022-12-18T08:00:12;23.90;;;9.18;;
21272;SDS011;36726;52.328;10.552;2022-12-18T08:02:39;19.63;;;8.85;;
21272;SDS011;36726;52.328;10.552;2022-12-18T08:05:07;15.85;;;8.60;;
21272;SDS011;36726;52.328;10.552;2022-12-18T08:07:34;19.33;;;9.10;;
21272;SDS011;36726;52.328;10.552;2022-12-18T08:10:00;16.80;;;9.25;;
21272;SDS011;36726;52.328;10.552;2022-12-18T08:12:27;22.67;;;10.00;;
21272;SDS011;36726;52.328;10.552;2022-12-18T08:14:54;19.65;;;8.25;;
21272;SDS011;36726;52.328;10.552;2022-12-18T08:17:20;19.35;;;8.55;;
21272;SDS011;36726;52.328;10.552;2022-12-18T08:19:47;25.27;;;9.95;;
21272;SDS011;36726;52.328;10.552;2022-12-18T08:22:13;22.20;;;9.57;;
21272;SDS011;36726;52.328;10.552;2022-12-18T08:24:40;15.73;;;8.52;;
21272;SDS011;36726;52.328;10.552;2022-12-18T08:27:07;18.52;;;8.85;;
21272;SDS011;36726;52.328;10.552;2022-12-18T08:29:54;20.38;;;9.10;;
21272;SDS011;36726;52.328;10.552;2022-12-18T08:32:22;24.50;;;10.18;;
21272;SDS011;36726;52.328;10.552;2022-12-18T08:34:50;22.45;;;11.15;;
21272;SDS011;36726;52.328;10.552;2022-12-18T08:37:16;24.38;;;9.57;;
21272;SDS011;36726;52.328;10.552;2022-12-18T08:39:43;27.02;;;10.30;;
21272;SDS011;36726;52.328;10.552;2022-12-18T08:42:10;21.17;;;9.70;;
21272;SDS011;36726;52.328;10.552;2022-12-18T08:44:55;19.95;;;9.55;;
21272;SDS011;36726;52.328;10.552;2022-12-18T08:47:21;22.65;;;11.13;;
21272;SDS011;36726;52.328;10.552;2022-12-18T08:49:48;25.58;;;11.95;;
21272;SDS011;36726;52.328;10.552;2022-12-18T08:52:15;26.83;;;11.70;;
21272;SDS011;36726;52.328;10.552;2022-12-18T08:54:41;26.17;;;10.88;;
21272;SDS011;36726;52.328;10.552;2022-12-18T08:57:08;26.33;;;11.13;;
21272;SDS011;36726;52.328;10.552;2022-12-18T08:59:35;21.95;;;9.68;;
21272;SDS011;36726;52.328;10.552;2022-12-18T09:02:01;20.58;;;10.25;;
21272;SDS011;36726;52.328;10.552;2022-12-18T09:04:28;23.58;;;9.35;;
21272;SDS011;36726;52.328;10.552;2022-12-18T09:06:55;19.27;;;9.25;;
21272;SDS011;36726;52.328;10.552;2022-12-18T09:09:21;24.98;;;9.65;;
21272;SDS011;36726;52.328;10.552;2022-12-18T09:11:48;22.27;;;8.60;;
21272;SDS011;36726;52.328;10.552;2022-12-18T09:14:14;25.10;;;9.25;;
21272;SDS011;36726;52.328;10.552;2022-12-18T09:16:41;17.45;;;8.88;;
21272;SDS011;36726;52.328;10.552;2022-12-18T09:19:08;19.70;;;8.65;;
21272;SDS011;36726;52.328;10.552;2022-12-18T09:21:36;26.83;;;9.63;;
21272;SDS011;36726;52.328;10.552;2022-12-18T09:24:03;17.05;;;9.07;;
21272;SDS011;36726;52.328;10.552;2022-12-18T09:26:34;20.58;;;9.15;;
21272;SDS011;36726;52.328;10.552;2022-12-18T09:29:01;19.50;;;9.93;;
21272;SDS011;36726;52.328;10.552;2022-12-18T09:31:28;25.25;;;9.77;;
21272;SDS011;36726;52.328;10.552;2022-12-18T09:33:55;24.40;;;10.65;;
21272;SDS011;36726;52.328;10.552;2022-12-18T09:36:23;27.77;;;10.23;;
21272;SDS011;36726;52.328;10.552;2022-12-18T09:38:49;21.20;;;9.80;;
21272;SDS011;36726;52.328;10.552;2022-12-18T09:44:03;43.58;;;17.85;;
21272;SDS011;36726;52.328;10.552;2022-12-18T09:49:42;22.27;;;9.45;;
21272;SDS011;36726;52.328;10.552;2022-12-18T09:55:22;24.92;;;12.25;;
21272;SDS011;36726;52.328;10.552;2022-12-18T09:58:06;22.10;;;11.35;;
21272;SDS011;36726;52.328;10.552;2022-12-18T10:00:41;26.88;;;12.35;;
21272;SDS011;36726;52.328;10.552;2022-12-18T10:03:10;20.63;;;9.95;;
21272;SDS011;36726;52.328;10.552;2022-12-18T10:05:44;21.98;;;10.15;;
21272;SDS011;36726;52.328;10.552;2022-12-18T10:08:54;19.52;;;10.05;;
21272;SDS011;36726;52.328;10.552;2022-12-18T10:14:26;22.85;;;9.73;;
21272;SDS011;36726;52.328;10.552;2022-12-18T10:20:02;19.02;;;10.48;;
21272;SDS011;36726;52.328;10.552;2022-12-18T10:27:57;21.92;;;9.85;;
21272;SDS011;36726;52.328;10.552;2022-12-18T10:30:26;21.83;;;9.15;;
21272;SDS011;36726;52.328;10.552;2022-12-18T10:32:53;21.45;;;10.13;;
21272;SDS011;36726;52.328;10.552;2022-12-18T10:35:21;23.45;;;9.60;;
21272;SDS011;36726;52.328;10.552;2022-12-18T10:38:06;21.17;;;9.75;;
21272;SDS011;36726;52.328;10.552;2022-12-18T10:40:55;19.88;;;9.35;;
21272;SDS011;36726;52.328;10.552;2022-12-18T10:43:26;19.17;;;10.15;;
21272;SDS011;36726;52.328;10.552;2022-12-18T10:48:48;23.38;;;11.45;;
21272;SDS011;36726;52.328;10.552;2022-12-18T10:54:03;23.77;;;12.68;;
21272;SDS011;36726;52.328;10.552;2022-12-18T10:56:33;28.08;;;13.77;;
21272;SDS011;36726;52.328;10.552;2022-12-18T10:59:03;24.85;;;13.80;;
21272;SDS011;36726;52.328;10.552;2022-12-18T11:01:45;23.38;;;9.88;;
21272;SDS011;36726;52.328;10.552;2022-12-18T11:04:24;20.85;;;10.70;;
21272;SDS011;36726;52.328;10.552;2022-12-18T11:09:28;22.05;;;10.35;;
21272;SDS011;36726;52.328;10.552;2022-12-18T11:11:59;23.25;;;11.25;;
21272;SDS011;36726;52.328;10.552;2022-12-18T11:14:32;25.17;;;11.13;;
21272;SDS011;36726;52.328;10.552;2022-12-18T11:17:19;23.15;;;10.75;;
21272;SDS011;36726;52.328;10.552;2022-12-18T11:19:56;17.98;;;10.07;;
21272;SDS011;36726;52.328;10.552;2022-12-18T11:22:31;18.13;;;9.43;;
21272;SDS011;36726;52.328;10.552;2022-12-18T11:27:54;22.90;;;10.13;;
21272;SDS011;36726;52.328;10.552;2022-12-18T11:30:33;21.67;;;10.93;;
21272;SDS011;36726;52.328;10.552;2022-12-18T11:33:06;21.27;;;10.60;;
21272;SDS011;36726;52.328;10.552;2022-12-18T11:35:42;22.55;;;9.60;;
21272;SDS011;36726;52.328;10.552;2022-12-18T11:38:22;24.30;;;10.60;;
21272;SDS011;36726;52.328;10.552;2022-12-18T11:43:31;20.88;;;10.00;;
21272;SDS011;36726;52.328;10.552;2022-12-18T11:46:09;19.45;;;10.15;;
21272;SDS011;36726;52.328;10.552;2022-12-18T11:49:02;22.00;;;9.80;;
21272;SDS011;36726;52.328;10.552;2022-12-18T11:51:41;21.23;;;10.77;;
21272;SDS011;36726;52.328;10.552;2022-12-18T11:54:14;21.63;;;10.25;;
21272;SDS011;36726;52.328;10.552;2022-12-18T11:56:53;17.83;;;9.70;;
21272;SDS011;36726;52.328;10.552;2022-12-18T12:08:11;19.48;;;10.90;;
21272;SDS011;36726;52.328;10.552;2022-12-18T12:10:56;27.95;;;12.35;;
21272;SDS011;36726;52.328;10.552;2022-12-18T12:13:58;28.20;;;14.05;;
21272;SDS011;36726;52.328;10.552;2022-12-18T12:25:07;19.70;;;9.55;;
21272;SDS011;36726;52.328;10.552;2022-12-18T12:30:47;15.15;;;8.13;;
21272;SDS011;36726;52.328;10.552;2022-12-18T12:34:06;19.17;;;9.27;;
21272;SDS011;36726;52.328;10.552;2022-12-18T12:36:30;19.77;;;8.57;;
21272;SDS011;36726;52.328;10.552;2022-12-18T12:39:17;23.63;;;9.70;;
21272;SDS011;36726;52.328;10.552;2022-12-18T12:41:47;15.45;;;8.25;;
21272;SDS011;36726;52.328;10.552;2022-12-18T12:44:35;21.02;;;11.55;;
21272;SDS011;36726;52.328;10.552;2022-12-18T12:47:20;21.23;;;12.23;;
21272;SDS011;36726;52.328;10.552;2022-12-18T12:49:54;19.65;;;9.73;;
21272;SDS011;36726;52.328;10.552;2022-12-18T12:52:28;15.48;;;8.35;;
21272;SDS011;36726;52.328;10.552;2022-12-18T12:55:00;24.88;;;11.80;;
21272;SDS011;36726;52.328;10.552;2022-12-18T12:57:37;18.63;;;9.35;;
21272;SDS011;36726;52.328;10.552;2022-12-18T13:00:09;14.23;;;7.55;;
21272;SDS011;36726;52.328;10.552;2022-12-18T13:08:10;16.92;;;7.45;;
21272;SDS011;36726;52.328;10.552;2022-12-18T13:10:47;22.20;;;8.50;;
21272;SDS011;36726;52.328;10.552;2022-12-18T13:13:15;14.52;;;7.57;;
21272;SDS011;36726;52.328;10.552;2022-12-18T13:16:02;17.48;;;9.27;;
21272;SDS011;36726;52.328;10.552;2022-12-18T13:18:32;16.77;;;8.38;;
21272;SDS011;36726;52.328;10.552;2022-12-18T13:23:35;14.77;;;7.60;;
21272;SDS011;36726;52.328;10.552;2022-12-18T13:31:13;18.20;;;8.88;;
21272;SDS011;36726;52.328;10.552;2022-12-18T13:33:43;18.90;;;10.00;;
21272;SDS011;36726;52.328;10.552;2022-12-18T13:36:32;21.55;;;12.05;;
21272;SDS011;36726;52.328;10.552;2022-12-18T13:39:09;18.23;;;8.23;;
21272;SDS011;36726;52.328;10.552;2022-12-18T13:44:40;13.85;;;7.28;;
21272;SDS011;36726;52.328;10.552;2022-12-18T13:50:17;23.45;;;10.27;;
21272;SDS011;36726;52.328;10.552;2022-12-18T13:52:48;31.27;;;16.50;;
21272;SDS011;36726;52.328;10.552;2022-12-18T13:55:18;30.50;;;14.82;;
21272;SDS011;36726;52.328;10.552;2022-12-18T13:57:47;27.92;;;13.50;;
21272;SDS011;36726;52.328;10.552;2022-12-18T14:00:23;21.00;;;10.15;;
21272;SDS011;36726;52.328;10.552;2022-12-18T14:02:57;22.33;;;11.60;;
21272;SDS011;36726;52.328;10.552;2022-12-18T14:05:32;21.42;;;10.00;;
21272;SDS011;36726;52.328;10.552;2022-12-18T14:08:06;17.67;;;9.20;;
21272;SDS011;36726;52.328;10.552;2022-12-18T14:10:39;18.17;;;10.15;;
21272;SDS011;36726;52.328;10.552;2022-12-18T14:13:28;19.63;;;9.35;;
21272;SDS011;36726;52.328;10.552;2022-12-18T14:15:58;19.52;;;10.35;;
21272;SDS011;36726;52.328;10.552;2022-12-18T14:18:32;17.80;;;9.73;;
21272;SDS011;36726;52.328;10.552;2022-12-18T14:21:05;22.00;;;10.15;;
21272;SDS011;36726;52.328;10.552;2022-12-18T14:23:40;18.05;;;9.70;;
21272;SDS011;36726;52.328;10.552;2022-12-18T14:31:44;16.80;;;8.90;;
21272;SDS011;36726;52.328;10.552;2022-12-18T14:34:17;21.45;;;9.40;;
21272;SDS011;36726;52.328;10.552;2022-12-18T14:36:51;27.33;;;9.55;;
21272;SDS011;36726;52.328;10.552;2022-12-18T14:39:20;23.88;;;9.82;;
21272;SDS011;36726;52.328;10.552;2022-12-18T14:41:51;20.05;;;9.90;;
21272;SDS011;36726;52.328;10.552;2022-12-18T14:44:19;21.88;;;9.82;;
21272;SDS011;36726;52.328;10.552;2022-12-18T14:46:48;20.05;;;10.05;;
21272;SDS011;36726;52.328;10.552;2022-12-18T14:49:29;16.85;;;9.98;;
21272;SDS011;36726;52.328;10.552;2022-12-18T14:52:00;19.25;;;10.73;;
21272;SDS011;36726;52.328;10.552;2022-12-18T14:54:29;19.15;;;9.55;;
21272;SDS011;36726;52.328;10.552;2022-12-18T14:57:01;17.88;;;9.07;;
21272;SDS011;36726;52.328;10.552;2022-12-18T14:59:31;17.52;;;8.50;;
21272;SDS011;36726;52.328;10.552;2022-12-18T15:04:37;19.05;;;9.27;;
21272;SDS011;36726;52.328;10.552;2022-12-18T15:09:40;19.90;;;9.43;;
21272;SDS011;36726;52.328;10.552;2022-12-18T15:12:33;19.50;;;9.80;;
21272;SDS011;36726;52.328;10.552;2022-12-18T15:15:03;18.13;;;10.38;;
21272;SDS011;36726;52.328;10.552;2022-12-18T15:17:31;20.98;;;10.95;;
21272;SDS011;36726;52.328;10.552;2022-12-18T15:19:59;19.35;;;8.13;;
21272;SDS011;36726;52.328;10.552;2022-12-18T15:22:28;16.80;;;8.27;;
21272;SDS011;36726;52.328;10.552;2022-12-18T15:24:57;16.00;;;8.30;;
21272;SDS011;36726;52.328;10.552;2022-12-18T15:27:31;18.70;;;8.98;;
21272;SDS011;36726;52.328;10.552;2022-12-18T15:32:36;21.55;;;9.73;;
21272;SDS011;36726;52.328;10.552;2022-12-18T15:37:37;19.15;;;7.82;;
21272;SDS011;36726;52.328;10.552;2022-12-18T15:40:05;20.83;;;8.23;;
21272;SDS011;36726;52.328;10.552;2022-12-18T15:42:34;15.63;;;8.50;;
21272;SDS011;36726;52.328;10.552;2022-12-18T15:45:19;20.60;;;9.07;;
21272;SDS011;36726;52.328;10.552;2022-12-18T15:47:48;16.58;;;8.57;;
21272;SDS011;36726;52.328;10.552;2022-12-18T15:50:14;18.52;;;7.88;;
21272;SDS011;36726;52.328;10.552;2022-12-18T15:52:43;17.77;;;10.20;;
21272;SDS011;36726;52.328;10.552;2022-12-18T15:55:15;20.70;;;10.63;;
21272;SDS011;36726;52.328;10.552;2022-12-18T15:58:08;24.55;;;11.57;;
21272;SDS011;36726;52.328;10.552;2022-12-18T16:00:38;22.17;;;10.80;;
21272;SDS011;36726;52.328;10.552;2022-12-18T16:03:06;25.00;;;12.40;;
21272;SDS011;36726;52.328;10.552;2022-12-18T16:05:33;23.95;;;11.10;;
21272;SDS011;36726;52.328;10.552;2022-12-18T16:08:00;19.88;;;10.93;;
21272;SDS011;36726;52.328;10.552;2022-12-18T16:10:27;28.17;;;11.98;;
21272;SDS011;36726;52.328;10.552;2022-12-18T16:12:54;19.20;;;10.27;;
21272;SDS011;36726;52.328;10.552;2022-12-18T16:15:20;24.83;;;13.25;;
21272;SDS011;36726;52.328;10.552;2022-12-18T16:17:50;22.63;;;12.18;;
21272;SDS011;36726;52.328;10.552;2022-12-18T16:20:21;22.85;;;12.82;;
21272;SDS011;36726;52.328;10.552;2022-12-18T16:22:49;23.45;;;10.30;;
21272;SDS011;36726;52.328;10.552;2022-12-18T16:25:22;24.58;;;12.07;;
21272;SDS011;36726;52.328;10.552;2022-12-18T16:27:54;20.45;;;10.65;;
21272;SDS011;36726;52.328;10.552;2022-12-18T16:30:23;21.77;;;9.82;;
21272;SDS011;36726;52.328;10.552;2022-12-18T16:32:57;22.90;;;10.93;;
21272;SDS011;36726;52.328;10.552;2022-12-18T16:35:24;19.58;;;9.88;;
21272;SDS011;36726;52.328;10.552;2022-12-18T16:37:51;21.98;;;9.50;;
21272;SDS011;36726;52.328;10.552;2022-12-18T16:40:21;22.52;;;10.43;;
21272;SDS011;36726;52.328;10.552;2022-12-18T16:42:48;18.23;;;10.02;;
21272;SDS011;36726;52.328;10.552;2022-12-18T16:45:16;20.98;;;9.18;;
21272;SDS011;36726;52.328;10.552;2022-12-18T16:47:44;19.13;;;9.55;;